createdAt,value
2022-08-19T00:00:05.403Z,100.00
2022-08-19T00:02:33.537Z,100.00
2022-08-19T00:05:02.942Z,100.00
2022-08-19T00:07:30.990Z,100.00
2022-08-19T00:09:58.976Z,100.00
2022-08-19T00:12:27.093Z,100.00
2022-08-19T00:14:55.261Z,100.00
2022-08-19T00:17:23.205Z,100.00
2022-08-19T00:19:51.096Z,100.00
2022-08-19T00:22:20.327Z,100.00
2022-08-19T00:24:49.557Z,100.00
2022-08-19T00:27:25.748Z,100.00
2022-08-19T00:29:54.832Z,100.00
2022-08-19T00:32:23.024Z,100.00
2022-08-19T00:34:53.764Z,100.00
2022-08-19T00:37:24.166Z,100.00
2022-08-19T00:39:53.137Z,100.00
2022-08-19T00:42:21.746Z,100.00
2022-08-19T00:44:50.235Z,100.00
2022-08-19T00:47:18.191Z,100.00
2022-08-19T00:49:51.606Z,100.00
2022-08-19T00:52:23.312Z,100.00
2022-08-19T00:54:52.892Z,100.00
2022-08-19T00:57:24.494Z,100.00
2022-08-19T01:00:01.457Z,100.00
2022-08-19T01:02:31.752Z,100.00
2022-08-19T01:04:59.638Z,100.00
2022-08-19T01:07:28.943Z,100.00
2022-08-19T01:10:04.234Z,100.00
2022-08-19T01:12:32.325Z,100.00
2022-08-19T01:15:00.212Z,100.00
2022-08-19T01:17:28.647Z,100.00
2022-08-19T01:19:56.922Z,100.00
2022-08-19T01:22:33.638Z,100.00
2022-08-19T01:25:02.002Z,100.00
2022-08-19T01:27:40.070Z,100.00
2022-08-19T01:30:14.404Z,100.00
2022-08-19T01:32:42.370Z,100.00
2022-08-19T01:35:10.602Z,100.00
2022-08-19T01:37:48.120Z,100.00
2022-08-19T01:40:16.596Z,100.00
2022-08-19T01:42:44.709Z,100.00
2022-08-19T01:45:12.634Z,100.00
2022-08-19T01:47:40.588Z,100.00
2022-08-19T01:50:09.732Z,100.00
2022-08-19T01:52:37.940Z,100.00
2022-08-19T01:55:08.841Z,100.00
2022-08-19T01:57:36.784Z,100.00
2022-08-19T02:00:07.707Z,100.00
2022-08-19T02:02:35.624Z,100.00
2022-08-19T02:05:03.660Z,100.00
2022-08-19T02:07:33.741Z,100.00
2022-08-19T02:10:08.926Z,100.00
2022-08-19T02:12:41.606Z,100.00
2022-08-19T02:15:10.707Z,100.00
2022-08-19T02:17:41.837Z,100.00
2022-08-19T02:20:11.078Z,100.00
2022-08-19T02:22:38.979Z,100.00
2022-08-19T02:25:07.214Z,100.00
2022-08-19T02:27:35.429Z,100.00
2022-08-19T02:30:06.853Z,100.00
2022-08-19T02:32:34.915Z,100.00
2022-08-19T02:35:12.978Z,100.00
2022-08-19T02:37:58.358Z,100.00
2022-08-19T02:40:27.687Z,100.00
2022-08-19T02:42:56.058Z,100.00
2022-08-19T02:45:25.754Z,100.00
2022-08-19T02:47:53.921Z,100.00
2022-08-19T02:50:22.662Z,100.00
2022-08-19T02:52:50.998Z,100.00
2022-08-19T02:55:19.006Z,100.00
2022-08-19T02:57:46.906Z,100.00
2022-08-19T03:00:15.300Z,100.00
2022-08-19T03:02:44.601Z,100.00
2022-08-19T03:05:12.582Z,100.00
2022-08-19T03:07:40.501Z,100.00
2022-08-19T03:10:09.143Z,100.00
2022-08-19T03:12:38.150Z,100.00
2022-08-19T03:15:08.550Z,100.00
2022-08-19T03:17:36.486Z,100.00
2022-08-19T03:20:06.892Z,100.00
2022-08-19T03:22:35.330Z,100.00
2022-08-19T03:25:03.283Z,100.00
2022-08-19T03:27:34.347Z,100.00
2022-08-19T03:30:03.041Z,100.00
2022-08-19T03:32:32.520Z,100.00
2022-08-19T03:35:01.147Z,100.00
2022-08-19T03:37:30.710Z,100.00
2022-08-19T03:40:01.309Z,100.00
2022-08-19T03:42:32.753Z,100.00
2022-08-19T03:45:08.468Z,100.00
2022-08-19T03:47:36.398Z,100.00
2022-08-19T03:50:04.427Z,100.00
2022-08-19T03:52:33.769Z,100.00
2022-08-19T03:55:02.059Z,100.00
2022-08-19T03:57:31.976Z,100.00
2022-08-19T04:00:04.109Z,100.00
2022-08-19T04:02:42.962Z,100.00
2022-08-19T04:05:27.562Z,100.00
2022-08-19T04:07:58.094Z,100.00
2022-08-19T04:10:26.245Z,100.00
2022-08-19T04:12:54.349Z,100.00
2022-08-19T04:15:22.378Z,100.00
2022-08-19T04:17:50.830Z,100.00
2022-08-19T04:20:18.982Z,100.00
2022-08-19T04:22:47.106Z,100.00
2022-08-19T04:25:16.621Z,100.00
2022-08-19T04:27:47.511Z,100.00
2022-08-19T04:30:15.923Z,100.00
2022-08-19T04:32:44.704Z,100.00
2022-08-19T04:35:16.777Z,100.00
2022-08-19T04:37:46.538Z,100.00
2022-08-19T04:40:31.656Z,100.00
2022-08-19T04:43:02.091Z,100.00
2022-08-19T04:45:39.573Z,100.00
2022-08-19T04:48:25.688Z,100.00
2022-08-19T04:50:58.539Z,100.00
2022-08-19T04:53:29.602Z,100.00
2022-08-19T04:55:57.527Z,100.00
2022-08-19T04:58:27.910Z,100.00
2022-08-19T05:00:56.555Z,100.00
2022-08-19T05:03:27.594Z,100.00
2022-08-19T05:05:58.973Z,100.00
2022-08-19T05:08:31.253Z,100.00
2022-08-19T05:10:59.925Z,100.00
2022-08-19T05:13:29.316Z,100.00
2022-08-19T05:15:57.634Z,100.00
2022-08-19T05:18:43.295Z,100.00
2022-08-19T05:21:28.970Z,100.00
2022-08-19T05:23:56.956Z,100.00
2022-08-19T05:26:26.916Z,100.00
2022-08-19T05:28:56.589Z,100.00
2022-08-19T05:31:24.886Z,100.00
2022-08-19T05:33:53.373Z,100.00
2022-08-19T05:36:22.282Z,100.00
2022-08-19T05:38:51.426Z,100.00
2022-08-19T05:41:19.779Z,100.00
2022-08-19T05:43:48.225Z,100.00
2022-08-19T05:46:27.685Z,100.00
2022-08-19T05:49:00.968Z,100.00
2022-08-19T05:51:29.384Z,100.00
2022-08-19T05:53:57.488Z,100.00
2022-08-19T05:56:25.707Z,100.00
2022-08-19T05:58:54.242Z,100.00
2022-08-19T06:01:23.987Z,100.00
2022-08-19T06:03:52.077Z,100.00
2022-08-19T06:06:20.067Z,100.00
2022-08-19T06:08:51.112Z,100.00
2022-08-19T06:11:21.660Z,100.00
2022-08-19T06:13:51.612Z,100.00
2022-08-19T06:16:23.282Z,100.00
2022-08-19T06:18:53.721Z,100.00
2022-08-19T06:21:22.275Z,100.00
2022-08-19T06:23:51.410Z,100.00
2022-08-19T06:26:19.635Z,100.00
2022-08-19T06:28:50.124Z,100.00
2022-08-19T06:31:18.569Z,100.00
2022-08-19T06:33:47.204Z,100.00
2022-08-19T06:36:28.261Z,100.00
2022-08-19T06:38:56.793Z,100.00
2022-08-19T06:41:24.704Z,100.00
2022-08-19T06:43:54.198Z,100.00
2022-08-19T06:46:24.802Z,100.00
2022-08-19T06:48:54.430Z,100.00
2022-08-19T06:51:24.980Z,100.00
2022-08-19T06:53:56.106Z,100.00
2022-08-19T06:56:31.883Z,100.00
2022-08-19T06:58:59.965Z,100.00
2022-08-19T07:01:28.287Z,100.00
2022-08-19T07:03:58.090Z,100.00
2022-08-19T07:06:44.086Z,100.00
2022-08-19T07:09:14.446Z,100.00
2022-08-19T07:11:47.170Z,100.00
2022-08-19T07:14:19.237Z,100.00
2022-08-19T07:16:48.510Z,100.00
2022-08-19T07:19:18.730Z,100.00
2022-08-19T07:21:48.861Z,100.00
2022-08-19T07:24:21.057Z,100.00
2022-08-19T07:26:51.954Z,100.00
2022-08-19T07:29:22.949Z,100.00
2022-08-19T07:31:53.602Z,100.00
2022-08-19T07:34:22.582Z,100.00
2022-08-19T07:36:51.951Z,100.00
2022-08-19T07:39:21.578Z,100.00
2022-08-19T07:41:49.904Z,100.00
2022-08-19T07:44:17.868Z,100.00
2022-08-19T07:46:50.324Z,100.00
2022-08-19T07:49:21.693Z,100.00
2022-08-19T07:51:52.198Z,100.00
2022-08-19T07:54:20.917Z,100.00
2022-08-19T07:56:49.099Z,100.00
2022-08-19T07:59:20.823Z,100.00
2022-08-19T08:01:51.397Z,100.00
2022-08-19T08:04:38.233Z,100.00
2022-08-19T08:07:25.249Z,100.00
2022-08-19T08:09:59.884Z,100.00
2022-08-19T08:12:35.159Z,100.00
2022-08-19T08:15:08.295Z,100.00
2022-08-19T08:17:48.589Z,100.00
2022-08-19T08:20:17.923Z,100.00
2022-08-19T08:23:05.466Z,100.00
2022-08-19T08:25:34.315Z,100.00
2022-08-19T08:28:02.472Z,100.00
2022-08-19T08:30:32.500Z,100.00
2022-08-19T08:33:00.891Z,100.00
2022-08-19T08:35:30.714Z,100.00
2022-08-19T08:38:00.184Z,100.00
2022-08-19T08:40:31.063Z,100.00
2022-08-19T08:45:40.928Z,100.00
2022-08-19T08:48:24.037Z,100.00
2022-08-19T08:50:53.545Z,100.00
2022-08-19T08:53:27.454Z,100.00
2022-08-19T08:56:01.393Z,100.00
2022-08-19T08:58:31.730Z,100.00
2022-08-19T09:00:59.765Z,100.00
2022-08-19T09:03:31.534Z,100.00
2022-08-19T09:06:02.476Z,100.00
2022-08-19T09:08:44.011Z,100.00
2022-08-19T09:11:15.351Z,100.00
2022-08-19T09:14:23.550Z,100.00
2022-08-19T09:17:01.062Z,100.00
2022-08-19T09:19:29.496Z,100.00
2022-08-19T09:21:57.979Z,100.00
2022-08-19T09:24:31.012Z,100.00
2022-08-19T09:26:59.954Z,100.00
2022-08-19T09:29:28.132Z,100.00
2022-08-19T09:31:56.515Z,100.00
2022-08-19T09:34:25.635Z,100.00
2022-08-19T09:36:55.362Z,100.00
2022-08-19T09:39:23.872Z,100.00
2022-08-19T09:41:54.127Z,100.00
2022-08-19T09:44:22.514Z,100.00
2022-08-19T09:46:50.479Z,100.00
2022-08-19T09:49:19.197Z,100.00
2022-08-19T09:51:51.263Z,100.00
2022-08-19T09:54:23.620Z,100.00
2022-08-19T09:56:55.011Z,100.00
2022-08-19T09:59:23.107Z,100.00
2022-08-19T10:01:52.049Z,100.00
2022-08-19T10:04:22.444Z,100.00
2022-08-19T10:06:53.902Z,100.00
2022-08-19T10:09:26.381Z,100.00
2022-08-19T10:12:05.072Z,100.00
2022-08-19T10:14:34.260Z,100.00
2022-08-19T10:17:04.707Z,100.00
2022-08-19T10:19:55.135Z,100.00
2022-08-19T10:22:23.773Z,100.00
2022-08-19T10:24:54.031Z,100.00
2022-08-19T10:27:23.416Z,100.00
2022-08-19T10:29:51.656Z,100.00
2022-08-19T10:32:19.714Z,100.00
2022-08-19T10:35:02.410Z,100.00
2022-08-19T10:37:33.895Z,100.00
2022-08-19T10:40:04.268Z,100.00
2022-08-19T10:42:33.815Z,100.00
2022-08-19T10:45:05.038Z,100.00
2022-08-19T10:47:33.827Z,100.00
2022-08-19T10:50:19.958Z,100.00
2022-08-19T10:52:50.646Z,100.00
2022-08-19T10:55:37.344Z,100.00
2022-08-19T10:58:12.023Z,100.00
2022-08-19T11:00:41.575Z,100.00
2022-08-19T11:03:09.775Z,100.00
2022-08-19T11:05:40.085Z,100.00
2022-08-19T11:08:22.270Z,100.00
2022-08-19T11:10:51.149Z,100.00
2022-08-19T11:13:20.471Z,100.00
2022-08-19T11:15:48.589Z,100.00
2022-08-19T11:18:18.046Z,100.00
2022-08-19T11:20:46.382Z,100.00
2022-08-19T11:23:23.894Z,100.00
2022-08-19T11:25:51.908Z,100.00
2022-08-19T11:28:21.786Z,100.00
2022-08-19T11:30:49.740Z,100.00
2022-08-19T11:33:18.564Z,100.00
2022-08-19T11:35:46.774Z,100.00
2022-08-19T11:38:15.832Z,100.00
2022-08-19T11:40:44.523Z,100.00
2022-08-19T11:43:12.473Z,100.00
2022-08-19T11:45:44.095Z,100.00
2022-08-19T11:48:12.023Z,100.00
2022-08-19T11:50:41.354Z,100.00
2022-08-19T11:53:09.275Z,100.00
2022-08-19T11:55:43.388Z,100.00
2022-08-19T11:58:18.634Z,100.00
2022-08-19T12:00:48.588Z,100.00
2022-08-19T12:03:16.619Z,100.00
2022-08-19T12:05:44.627Z,100.00
2022-08-19T12:08:13.828Z,100.00
2022-08-19T12:10:41.967Z,100.00
2022-08-19T12:13:10.407Z,100.00
2022-08-19T12:15:38.829Z,100.00
2022-08-19T12:18:08.442Z,100.00
2022-08-19T12:20:37.084Z,100.00
2022-08-19T12:23:05.239Z,100.00
2022-08-19T12:25:33.685Z,100.00
2022-08-19T12:28:01.799Z,100.00
2022-08-19T12:30:29.933Z,100.00
2022-08-19T12:33:00.166Z,100.00
2022-08-19T12:35:29.849Z,100.00
2022-08-19T12:37:57.976Z,100.00
2022-08-19T12:40:26.599Z,100.00
2022-08-19T12:42:54.736Z,100.00
2022-08-19T12:45:23.475Z,100.00
2022-08-19T12:47:54.923Z,98.77
2022-08-19T12:50:23.526Z,97.83
2022-08-19T12:52:53.208Z,98.17
2022-08-19T12:55:21.212Z,99.17
2022-08-19T12:57:49.653Z,97.24
2022-08-19T13:00:19.648Z,97.08
2022-08-19T13:02:50.374Z,97.39
2022-08-19T13:05:21.017Z,98.35
2022-08-19T13:07:49.070Z,99.94
2022-08-19T13:10:21.741Z,100.00
2022-08-19T13:12:50.623Z,100.00
2022-08-19T13:15:23.669Z,100.00
2022-08-19T13:17:53.890Z,100.00
2022-08-19T13:20:22.866Z,100.00
2022-08-19T13:22:50.981Z,100.00
2022-08-19T13:25:21.201Z,100.00
2022-08-19T13:27:50.362Z,100.00
2022-08-19T13:30:39.284Z,99.21
2022-08-19T13:33:15.195Z,98.33
2022-08-19T13:35:45.407Z,95.68
2022-08-19T13:38:14.052Z,94.72
2022-08-19T13:40:43.601Z,94.30
2022-08-19T13:43:17.890Z,93.97
2022-08-19T13:45:51.773Z,92.57
2022-08-19T13:48:19.909Z,93.98
2022-08-19T13:50:49.183Z,95.19
2022-08-19T13:53:17.305Z,97.00
2022-08-19T13:55:46.628Z,95.19
2022-08-19T13:58:15.174Z,95.10
2022-08-19T14:00:45.167Z,95.38
2022-08-19T14:03:13.249Z,95.73
2022-08-19T14:05:41.189Z,93.71
2022-08-19T14:08:09.816Z,93.82
2022-08-19T14:10:37.768Z,91.72
2022-08-19T14:13:07.036Z,89.92
2022-08-19T14:15:35.225Z,90.58
2022-08-19T14:18:03.171Z,91.57
2022-08-19T14:20:36.527Z,90.34
2022-08-19T14:23:06.185Z,91.54
2022-08-19T14:25:34.362Z,90.40
2022-08-19T14:28:02.931Z,90.00
2022-08-19T14:30:33.627Z,88.70
2022-08-19T14:33:02.189Z,89.73
2022-08-19T14:35:31.392Z,90.57
2022-08-19T14:37:59.526Z,89.41
2022-08-19T14:40:28.891Z,87.63
2022-08-19T14:43:00.117Z,89.78
2022-08-19T14:45:28.507Z,91.75
2022-08-19T14:47:58.014Z,90.76
2022-08-19T14:50:25.983Z,91.47
2022-08-19T14:53:00.521Z,91.02
2022-08-19T14:55:28.686Z,91.16
2022-08-19T14:57:56.603Z,91.69
2022-08-19T15:00:26.021Z,92.36
2022-08-19T15:02:54.574Z,92.01
2022-08-19T15:05:24.399Z,91.68
2022-08-19T15:07:59.779Z,92.21
2022-08-19T15:10:27.720Z,90.17
2022-08-19T15:12:56.065Z,91.44
2022-08-19T15:15:24.625Z,89.20
2022-08-19T15:17:52.584Z,90.40
2022-08-19T15:20:21.414Z,87.51
2022-08-19T15:22:50.808Z,89.31
2022-08-19T15:25:19.633Z,89.13
2022-08-19T15:27:48.049Z,88.43
2022-08-19T15:30:21.116Z,88.72
2022-08-19T15:32:49.387Z,90.25
2022-08-19T15:35:19.383Z,88.49
2022-08-19T15:37:47.440Z,91.57
2022-08-19T15:40:16.991Z,91.87
2022-08-19T15:42:45.059Z,89.96
2022-08-19T15:45:14.100Z,88.50
2022-08-19T15:47:43.703Z,89.56
2022-08-19T15:50:13.347Z,87.18
2022-08-19T15:52:49.966Z,86.82
2022-08-19T15:55:32.764Z,87.28
2022-08-19T15:58:27.872Z,87.97
2022-08-19T16:01:15.273Z,88.50
2022-08-19T16:04:02.288Z,89.83
2022-08-19T16:06:31.481Z,90.65
2022-08-19T16:09:02.023Z,90.67
2022-08-19T16:11:32.339Z,90.67
2022-08-19T16:14:00.440Z,92.46
2022-08-19T16:16:33.525Z,93.75
2022-08-19T16:19:03.789Z,95.03
2022-08-19T16:21:33.521Z,95.48
2022-08-19T16:24:02.164Z,95.39
2022-08-19T16:26:31.587Z,96.32
2022-08-19T16:29:01.798Z,97.05
2022-08-19T16:31:29.797Z,96.72
2022-08-19T16:33:58.479Z,97.02
2022-08-19T16:36:27.202Z,97.79
2022-08-19T16:38:56.732Z,98.77
2022-08-19T16:41:25.198Z,97.54
2022-08-19T16:43:54.678Z,97.07
2022-08-19T16:46:23.140Z,97.05
2022-08-19T16:48:54.987Z,97.31
2022-08-19T16:51:23.446Z,97.91
2022-08-19T16:53:52.738Z,96.98
2022-08-19T16:56:21.374Z,97.00
2022-08-19T16:58:50.263Z,97.16
2022-08-19T17:01:22.674Z,97.81
2022-08-19T17:03:52.800Z,99.87
2022-08-19T17:06:25.066Z,100.00
2022-08-19T17:08:56.449Z,100.00
2022-08-19T17:11:24.946Z,99.20
2022-08-19T17:13:53.108Z,100.00
2022-08-19T17:16:24.869Z,100.00
2022-08-19T17:18:54.737Z,100.00
2022-08-19T17:21:23.282Z,100.00
2022-08-19T17:23:51.432Z,100.00
2022-08-19T17:26:19.539Z,100.00
2022-08-19T17:28:49.835Z,99.57
2022-08-19T17:31:18.629Z,99.68
2022-08-19T17:33:48.987Z,100.00
2022-08-19T17:36:17.673Z,100.00
2022-08-19T17:38:45.863Z,100.00
2022-08-19T17:41:13.918Z,100.00
2022-08-19T17:43:43.782Z,99.82
2022-08-19T17:46:18.113Z,100.00
2022-08-19T17:48:54.730Z,100.00
2022-08-19T17:51:24.074Z,100.00
2022-08-19T17:53:53.126Z,100.00
2022-08-19T17:56:21.112Z,100.00
2022-08-19T17:58:57.825Z,100.00
2022-08-19T18:01:41.619Z,100.00
2022-08-19T18:04:19.842Z,100.00
2022-08-19T18:06:53.368Z,100.00
2022-08-19T18:09:24.436Z,100.00
2022-08-19T18:11:53.999Z,100.00
2022-08-19T18:14:33.364Z,100.00
2022-08-19T18:17:05.481Z,100.00
2022-08-19T18:19:41.030Z,100.00
2022-08-19T18:22:11.260Z,100.00
2022-08-19T18:24:41.942Z,100.00
2022-08-19T18:27:10.278Z,100.00
2022-08-19T18:29:40.223Z,100.00
2022-08-19T18:32:12.810Z,100.00
2022-08-19T18:34:42.409Z,100.00
2022-08-19T18:37:10.626Z,100.00
2022-08-19T18:39:56.174Z,100.00
2022-08-19T18:42:42.283Z,100.00
2022-08-19T18:45:36.429Z,100.00
2022-08-19T18:48:27.060Z,100.00
2022-08-19T18:50:58.086Z,100.00
2022-08-19T18:53:26.246Z,100.00
2022-08-19T18:55:55.521Z,100.00
2022-08-19T18:58:26.413Z,100.00
2022-08-19T19:00:57.484Z,100.00
2022-08-19T19:03:26.196Z,100.00
2022-08-19T19:05:54.227Z,100.00
2022-08-19T19:08:27.009Z,100.00
2022-08-19T19:10:59.015Z,100.00
2022-08-19T19:13:29.134Z,100.00
2022-08-19T19:15:57.871Z,100.00
2022-08-19T19:18:26.149Z,100.00
2022-08-19T19:20:54.126Z,100.00
2022-08-19T19:23:26.072Z,100.00
2022-08-19T19:25:54.045Z,100.00
2022-08-19T19:28:28.172Z,100.00
2022-08-19T19:30:58.081Z,100.00
2022-08-19T19:33:26.283Z,100.00
2022-08-19T19:35:54.328Z,100.00
2022-08-19T19:38:23.625Z,100.00
2022-08-19T19:40:52.367Z,100.00
2022-08-19T19:43:20.968Z,100.00
2022-08-19T19:45:52.027Z,100.00
2022-08-19T19:48:20.079Z,100.00
2022-08-19T19:50:48.861Z,100.00
2022-08-19T19:53:27.857Z,100.00
2022-08-19T19:55:58.958Z,100.00
2022-08-19T19:58:28.949Z,100.00
2022-08-19T20:00:58.017Z,100.00
2022-08-19T20:03:26.101Z,100.00
2022-08-19T20:05:54.832Z,100.00
2022-08-19T20:08:40.250Z,100.00
2022-08-19T20:11:10.259Z,100.00
2022-08-19T20:13:40.789Z,100.00
2022-08-19T20:16:08.891Z,100.00
2022-08-19T20:18:36.848Z,100.00
2022-08-19T20:21:04.870Z,100.00
2022-08-19T20:23:32.953Z,100.00
2022-08-19T20:26:01.277Z,100.00
2022-08-19T20:28:30.650Z,100.00
2022-08-19T20:30:58.639Z,100.00
2022-08-19T20:33:26.638Z,100.00
2022-08-19T20:35:54.571Z,100.00
2022-08-19T20:38:23.657Z,100.00
2022-08-19T20:40:53.034Z,100.00
2022-08-19T20:43:21.651Z,100.00
2022-08-19T20:45:51.087Z,100.00
2022-08-19T20:48:19.052Z,100.00
2022-08-19T20:50:47.799Z,100.00
2022-08-19T20:53:17.302Z,100.00
2022-08-19T20:55:45.770Z,100.00
2022-08-19T20:58:13.815Z,100.00
2022-08-19T21:00:44.077Z,100.00
2022-08-19T21:03:14.636Z,100.00
2022-08-19T21:05:43.495Z,100.00
2022-08-19T21:08:12.035Z,100.00
2022-08-19T21:10:42.363Z,100.00
2022-08-19T21:13:10.645Z,100.00
2022-08-19T21:15:40.741Z,100.00
2022-08-19T21:18:09.137Z,100.00
2022-08-19T21:20:39.072Z,100.00
2022-08-19T21:23:07.358Z,100.00
2022-08-19T21:25:35.567Z,100.00
2022-08-19T21:28:12.766Z,100.00
2022-08-19T21:30:59.124Z,100.00
2022-08-19T21:33:31.769Z,100.00
2022-08-19T21:36:01.751Z,100.00
2022-08-19T21:38:29.658Z,100.00
2022-08-19T21:40:58.064Z,100.00
2022-08-19T21:43:26.305Z,100.00
2022-08-19T21:45:54.612Z,100.00
2022-08-19T21:48:22.502Z,100.00
2022-08-19T21:50:51.959Z,100.00
2022-08-19T21:53:22.841Z,100.00
2022-08-19T21:55:53.784Z,100.00
2022-08-19T21:58:28.142Z,100.00
2022-08-19T22:00:58.785Z,100.00
2022-08-19T22:03:26.924Z,100.00
2022-08-19T22:05:54.820Z,100.00
2022-08-19T22:08:24.242Z,100.00
2022-08-19T22:10:52.509Z,100.00
2022-08-19T22:13:20.552Z,100.00
2022-08-19T22:15:50.394Z,100.00
2022-08-19T22:18:20.890Z,100.00
2022-08-19T22:20:50.354Z,100.00
2022-08-19T22:23:18.691Z,100.00
2022-08-19T22:25:48.315Z,100.00
2022-08-19T22:28:19.081Z,100.00
2022-08-19T22:30:55.894Z,100.00
2022-08-19T22:33:25.810Z,100.00
2022-08-19T22:35:53.750Z,100.00
2022-08-19T22:38:22.218Z,100.00
2022-08-19T22:40:52.401Z,100.00
2022-08-19T22:43:21.771Z,100.00
2022-08-19T22:45:50.747Z,100.00
2022-08-19T22:48:20.257Z,100.00
2022-08-19T22:51:08.839Z,100.00
2022-08-19T22:53:37.232Z,100.00
2022-08-19T22:56:06.832Z,100.00
2022-08-19T22:58:34.801Z,100.00
2022-08-19T23:01:02.944Z,100.00
2022-08-19T23:03:30.971Z,100.00
2022-08-19T23:05:58.923Z,100.00
2022-08-19T23:08:26.834Z,100.00
2022-08-19T23:10:54.826Z,100.00
2022-08-19T23:13:24.886Z,100.00
2022-08-19T23:15:52.867Z,100.00
2022-08-19T23:18:21.195Z,100.00
2022-08-19T23:20:49.163Z,100.00
2022-08-19T23:23:19.348Z,100.00
2022-08-19T23:25:47.531Z,100.00
2022-08-19T23:28:33.008Z,100.00
2022-08-19T23:31:02.439Z,100.00
2022-08-19T23:33:38.149Z,100.00
2022-08-19T23:36:19.549Z,100.00
2022-08-19T23:38:48.557Z,100.00
2022-08-19T23:41:17.588Z,100.00
2022-08-19T23:43:45.671Z,100.00
2022-08-19T23:46:27.509Z,100.00
2022-08-19T23:48:56.755Z,100.00
2022-08-19T23:51:26.496Z,100.00
2022-08-19T23:53:54.600Z,100.00
2022-08-19T23:56:22.703Z,100.00
2022-08-19T23:58:50.735Z,100.00
